createdAt,value
2022-12-15T00:00:16.270Z,51.78
2022-12-15T00:03:02.585Z,60.63
2022-12-15T00:05:50.155Z,52.53
2022-12-15T00:08:35.502Z,46.38
2022-12-15T00:11:20.501Z,49.17
2022-12-15T00:14:08.216Z,55.00
2022-12-15T00:16:53.417Z,46.33
2022-12-15T00:19:39.779Z,55.83
2022-12-15T00:22:25.063Z,57.08
2022-12-15T00:25:10.086Z,54.22
2022-12-15T00:27:55.159Z,54.97
2022-12-15T00:30:40.162Z,51.97
2022-12-15T00:33:26.191Z,56.97
2022-12-15T00:36:13.323Z,53.30
2022-12-15T00:41:12.187Z,51.65
2022-12-15T00:43:39.732Z,54.63
2022-12-15T00:48:52.020Z,52.72
2022-12-15T00:51:20.338Z,45.28
2022-12-15T00:54:05.944Z,59.17
2022-12-15T00:56:50.781Z,50.38
2022-12-15T00:59:35.909Z,55.30
2022-12-15T01:02:21.609Z,69.10
2022-12-15T01:05:06.720Z,56.75
2022-12-15T01:07:53.045Z,63.40
2022-12-15T01:10:38.021Z,46.63
2022-12-15T01:13:23.669Z,52.08
2022-12-15T01:16:16.322Z,55.70
2022-12-15T01:19:01.378Z,55.00
2022-12-15T01:21:28.754Z,66.75
2022-12-15T01:23:57.549Z,62.58
2022-12-15T01:26:24.974Z,50.95
2022-12-15T01:28:52.327Z,55.20
2022-12-15T01:31:19.752Z,63.47
2022-12-15T01:33:47.269Z,58.08
2022-12-15T01:38:45.100Z,53.63
2022-12-15T01:41:16.019Z,70.43
2022-12-15T01:43:43.401Z,54.28
2022-12-15T01:46:14.682Z,57.72
2022-12-15T01:48:44.069Z,58.45
2022-12-15T01:51:14.488Z,53.08
2022-12-15T01:53:43.830Z,57.88
2022-12-15T01:56:12.304Z,52.03
2022-12-15T01:58:43.047Z,64.10
2022-12-15T02:01:10.611Z,59.60
2022-12-15T02:03:40.698Z,56.63
2022-12-15T02:06:09.188Z,53.30
2022-12-15T02:08:37.013Z,58.78
2022-12-15T02:11:24.424Z,50.80
2022-12-15T02:14:00.468Z,55.28
2022-12-15T02:16:31.087Z,50.53
2022-12-15T02:19:00.354Z,50.78
2022-12-15T02:21:33.295Z,49.10
2022-12-15T02:24:24.545Z,52.72
2022-12-15T02:27:12.385Z,59.95
2022-12-15T02:29:58.285Z,50.20
2022-12-15T02:32:28.378Z,47.58
2022-12-15T02:34:59.148Z,56.05
2022-12-15T02:37:29.066Z,59.88
2022-12-15T02:39:56.439Z,52.17
2022-12-15T02:42:24.290Z,54.33
2022-12-15T02:44:53.691Z,47.22
2022-12-15T02:47:40.287Z,49.13
2022-12-15T02:50:20.670Z,57.28
2022-12-15T02:52:55.436Z,58.45
2022-12-15T02:55:28.813Z,56.28
2022-12-15T02:58:01.733Z,43.45
2022-12-15T03:00:31.346Z,53.72
2022-12-15T03:02:59.211Z,56.78
2022-12-15T03:05:30.929Z,47.08
2022-12-15T03:07:58.658Z,58.17
2022-12-15T03:10:27.802Z,52.00
2022-12-15T03:12:55.464Z,50.22
2022-12-15T03:15:23.144Z,55.35
2022-12-15T03:17:50.525Z,48.65
2022-12-15T03:20:18.100Z,60.33
2022-12-15T03:25:15.211Z,48.03
2022-12-15T03:27:44.199Z,47.55
2022-12-15T03:30:12.250Z,55.35
2022-12-15T03:32:39.608Z,50.95
2022-12-15T03:35:07.547Z,53.83
2022-12-15T03:37:34.916Z,59.85
2022-12-15T03:40:02.290Z,54.85
2022-12-15T03:42:49.152Z,58.58
2022-12-15T03:45:18.004Z,51.10
2022-12-15T03:47:46.016Z,49.88
2022-12-15T03:50:14.591Z,54.03
2022-12-15T03:52:41.958Z,55.03
2022-12-15T03:55:10.086Z,56.30
2022-12-15T03:57:38.833Z,64.25
2022-12-15T04:00:07.057Z,57.35
2022-12-15T04:02:40.096Z,55.83
2022-12-15T04:20:09.313Z,54.13
2022-12-15T04:22:36.966Z,56.88
2022-12-15T04:25:22.006Z,43.40
2022-12-15T04:28:07.037Z,52.45
2022-12-15T04:30:52.064Z,51.90
2022-12-15T04:33:38.586Z,50.20
2022-12-15T04:36:26.024Z,56.85
2022-12-15T04:39:10.912Z,48.42
2022-12-15T04:41:55.789Z,51.08
2022-12-15T04:44:41.428Z,56.63
2022-12-15T04:47:26.632Z,50.13
2022-12-15T04:50:11.803Z,49.72
2022-12-15T04:52:58.181Z,53.55
2022-12-15T04:55:43.148Z,36.10
2022-12-15T04:58:28.340Z,46.78
2022-12-15T05:01:15.265Z,44.70
2022-12-15T05:04:00.409Z,61.25
2022-12-15T05:06:45.516Z,60.40
2022-12-15T05:09:31.735Z,57.00
2022-12-15T05:12:16.624Z,60.85
2022-12-15T05:15:01.455Z,56.15
2022-12-15T05:17:47.251Z,47.10
2022-12-15T05:20:32.390Z,50.42
2022-12-15T05:23:17.544Z,45.50
2022-12-15T05:26:03.853Z,49.67
2022-12-15T05:28:48.986Z,48.60
2022-12-15T05:31:34.066Z,46.08
2022-12-15T05:34:05.514Z,53.55
2022-12-15T05:36:33.391Z,59.63
2022-12-15T05:39:00.769Z,52.92
2022-12-15T05:41:29.475Z,47.58
2022-12-15T05:43:56.899Z,53.10
2022-12-15T05:46:24.375Z,43.95
2022-12-15T06:01:14.720Z,50.65
2022-12-15T06:03:42.345Z,46.05
2022-12-15T06:06:10.540Z,47.58
2022-12-15T06:08:38.885Z,54.63
2022-12-15T06:11:06.746Z,51.55
2022-12-15T06:13:35.391Z,54.20
2022-12-15T06:16:04.056Z,52.80
2022-12-15T06:18:33.681Z,54.28
2022-12-15T06:21:01.964Z,61.58
2022-12-15T06:23:30.098Z,48.55
2022-12-15T06:25:57.768Z,56.80
2022-12-15T06:28:25.170Z,38.08
2022-12-15T06:30:53.640Z,56.75
2022-12-15T06:33:21.947Z,45.92
2022-12-15T06:35:50.623Z,50.53
2022-12-15T06:38:18.006Z,54.67
2022-12-15T06:40:45.347Z,55.30
2022-12-15T06:43:12.807Z,46.75
2022-12-15T06:50:35.065Z,44.28
2022-12-15T06:53:17.790Z,67.05
2022-12-15T06:55:45.360Z,44.83
2022-12-15T07:00:40.825Z,48.40
2022-12-15T07:03:09.204Z,57.15
2022-12-15T07:05:36.658Z,55.70
2022-12-15T07:08:05.559Z,52.75
2022-12-15T07:10:33.307Z,48.55
2022-12-15T07:13:00.694Z,54.55
2022-12-15T07:15:28.036Z,51.75
2022-12-15T07:17:56.462Z,42.15
2022-12-15T07:20:28.726Z,50.22
2022-12-15T07:22:56.441Z,49.10
2022-12-15T07:25:25.214Z,52.10
2022-12-15T07:27:52.861Z,47.30
2022-12-15T07:30:20.508Z,43.75
2022-12-15T07:32:50.183Z,51.33
2022-12-15T07:35:18.235Z,55.15
2022-12-15T07:37:45.600Z,47.15
2022-12-15T07:40:18.877Z,51.25
2022-12-15T07:42:48.019Z,45.50
2022-12-15T07:45:15.438Z,41.00
2022-12-15T07:47:43.760Z,48.50
2022-12-15T07:50:20.151Z,52.30
2022-12-15T07:52:50.291Z,49.83
2022-12-15T07:55:37.273Z,67.85
2022-12-15T07:58:08.674Z,59.65
2022-12-15T08:00:42.663Z,44.53
2022-12-15T08:03:13.020Z,61.50
2022-12-15T08:05:44.915Z,52.78
2022-12-15T08:08:15.413Z,66.32
2022-12-15T08:10:48.552Z,60.92
2022-12-15T08:13:31.610Z,72.50
2022-12-15T08:16:06.765Z,60.60
2022-12-15T08:18:36.918Z,84.30
2022-12-15T08:21:04.726Z,66.07
2022-12-15T08:23:32.976Z,65.10
2022-12-15T08:26:03.143Z,56.97
2022-12-15T08:28:33.676Z,56.72
2022-12-15T08:31:03.322Z,50.95
2022-12-15T08:33:35.821Z,67.18
2022-12-15T08:36:05.190Z,62.33
2022-12-15T08:38:32.675Z,59.72
2022-12-15T08:41:11.814Z,61.25
2022-12-15T08:43:48.714Z,56.10
2022-12-15T08:46:23.224Z,63.53
2022-12-15T08:48:52.490Z,92.70
2022-12-15T08:51:24.018Z,71.97
2022-12-15T08:53:56.400Z,68.03
2022-12-15T08:56:32.760Z,68.18
2022-12-15T08:59:02.565Z,72.72
2022-12-15T09:01:35.188Z,62.13
2022-12-15T09:04:11.600Z,56.65
2022-12-15T09:06:51.883Z,60.78
2022-12-15T09:09:22.415Z,64.10
2022-12-15T09:16:50.647Z,67.40
2022-12-15T09:19:20.426Z,54.30
2022-12-15T09:21:49.398Z,56.63
2022-12-15T09:24:26.126Z,65.60
2022-12-15T09:27:02.008Z,59.67
2022-12-15T09:29:32.494Z,64.38
2022-12-15T09:32:01.425Z,76.43
2022-12-15T09:34:31.642Z,68.55
2022-12-15T09:36:59.160Z,68.50
2022-12-15T09:39:28.563Z,65.53
2022-12-15T09:42:01.541Z,75.07
2022-12-15T09:44:33.143Z,61.10
2022-12-15T09:47:15.795Z,62.80
2022-12-15T09:49:51.525Z,59.78
2022-12-15T09:52:24.748Z,66.90
2022-12-15T09:55:01.626Z,62.38
2022-12-15T09:57:44.015Z,64.40
2022-12-15T10:00:16.661Z,52.95
2022-12-15T10:02:59.237Z,70.22
2022-12-15T10:06:06.225Z,53.05
2022-12-15T10:08:30.341Z,68.95
2022-12-15T10:11:01.394Z,53.20
2022-12-15T10:13:33.212Z,66.18
2022-12-15T10:16:05.057Z,58.38
2022-12-15T10:18:36.145Z,62.97
2022-12-15T10:21:15.107Z,50.60
2022-12-15T10:23:43.096Z,54.92
2022-12-15T10:26:21.008Z,55.70
2022-12-15T10:28:53.699Z,48.53
2022-12-15T10:31:25.786Z,62.95
2022-12-15T10:36:52.071Z,50.80
2022-12-15T10:39:21.055Z,52.50
2022-12-15T10:42:08.439Z,48.72
2022-12-15T10:44:38.194Z,54.88
2022-12-15T10:47:09.717Z,45.38
2022-12-15T10:49:37.067Z,50.83
2022-12-15T10:52:06.051Z,58.88
2022-12-15T10:54:36.599Z,49.17
2022-12-15T10:57:15.754Z,49.38
2022-12-15T10:59:43.185Z,48.30
2022-12-15T11:02:27.443Z,52.78
2022-12-15T11:04:56.015Z,54.03
2022-12-15T11:07:24.846Z,53.58
2022-12-15T11:09:58.658Z,49.38
2022-12-15T11:12:47.254Z,48.30
2022-12-15T11:15:34.367Z,44.40
2022-12-15T11:18:04.830Z,47.92
2022-12-15T11:20:35.061Z,47.30
2022-12-15T11:23:05.861Z,43.40
2022-12-15T11:25:36.023Z,53.40
2022-12-15T11:28:05.397Z,51.83
2022-12-15T11:30:34.676Z,58.45
2022-12-15T11:33:02.976Z,46.53
2022-12-15T11:35:33.410Z,66.20
2022-12-15T11:38:04.568Z,42.03
2022-12-15T11:40:39.183Z,39.13
2022-12-15T11:43:15.630Z,47.05
2022-12-15T11:45:48.836Z,41.53
2022-12-15T11:48:17.629Z,46.10
2022-12-15T11:50:52.543Z,44.13
2022-12-15T11:53:26.320Z,46.92
2022-12-15T11:55:59.339Z,45.08
2022-12-15T11:58:40.859Z,47.50
2022-12-15T12:01:13.309Z,41.03
2022-12-15T12:03:43.910Z,37.97
2022-12-15T12:06:17.071Z,38.05
2022-12-15T12:08:52.109Z,36.33
2022-12-15T12:11:22.628Z,34.78
2022-12-15T12:13:58.507Z,28.17
2022-12-15T12:16:31.371Z,35.65
2022-12-15T12:19:04.166Z,33.50
2022-12-15T12:21:35.434Z,29.90
2022-12-15T12:24:07.636Z,31.00
2022-12-15T12:26:42.878Z,30.15
2022-12-15T12:29:16.515Z,32.50
2022-12-15T12:31:50.897Z,27.13
2022-12-15T12:34:20.737Z,27.77
2022-12-15T12:36:48.880Z,27.90
2022-12-15T12:39:18.935Z,27.30
2022-12-15T12:41:51.388Z,32.75
2022-12-15T12:44:21.533Z,37.20
2022-12-15T12:46:50.711Z,30.52
2022-12-15T12:49:26.607Z,33.17
2022-12-15T12:51:55.197Z,27.88
2022-12-15T12:54:42.449Z,26.95
2022-12-15T12:57:24.709Z,29.35
2022-12-15T13:00:00.039Z,30.92
2022-12-15T13:02:46.192Z,36.58
2022-12-15T13:05:28.652Z,30.60
2022-12-15T13:07:57.233Z,30.42
2022-12-15T13:10:28.866Z,30.02
2022-12-15T13:13:00.715Z,29.00
2022-12-15T13:15:42.797Z,28.17
2022-12-15T13:18:16.395Z,28.73
2022-12-15T13:20:50.479Z,31.25
2022-12-15T13:23:33.607Z,32.97
2022-12-15T13:26:13.767Z,41.88
2022-12-15T13:28:46.914Z,36.22
2022-12-15T13:31:52.072Z,39.22
2022-12-15T13:34:24.004Z,38.22
2022-12-15T13:36:55.965Z,40.28
2022-12-15T13:40:00.989Z,44.13
2022-12-15T13:42:35.034Z,41.33
2022-12-15T13:45:19.111Z,50.95
2022-12-15T13:47:55.729Z,42.10
2022-12-15T13:50:33.355Z,46.67
2022-12-15T13:56:01.806Z,46.88
2022-12-15T13:58:33.008Z,49.72
2022-12-15T14:01:03.507Z,59.47
2022-12-15T14:03:35.625Z,53.08
2022-12-15T14:06:03.549Z,53.30
2022-12-15T14:08:33.728Z,59.47
2022-12-15T14:11:29.432Z,53.88
2022-12-15T14:13:54.912Z,53.88
2022-12-15T14:16:26.159Z,49.85
2022-12-15T14:19:14.917Z,57.70
2022-12-15T14:21:53.400Z,56.42
2022-12-15T14:24:40.254Z,55.60
2022-12-15T14:27:11.078Z,47.95
2022-12-15T14:29:40.977Z,57.33
2022-12-15T14:32:13.171Z,56.70
2022-12-15T14:34:41.741Z,61.05
2022-12-15T14:37:22.111Z,61.42
2022-12-15T14:39:56.444Z,62.75
2022-12-15T14:42:25.913Z,56.25
2022-12-15T14:45:03.836Z,72.07
2022-12-15T14:47:32.772Z,60.47
2022-12-15T14:50:04.036Z,56.38
2022-12-15T14:52:35.188Z,60.53
2022-12-15T14:55:31.541Z,59.60
2022-12-15T14:58:00.098Z,67.28
2022-12-15T15:00:32.026Z,66.13
2022-12-15T15:06:01.471Z,54.58
2022-12-15T15:08:43.250Z,65.97
2022-12-15T15:11:25.659Z,57.15
2022-12-15T15:13:56.194Z,65.43
2022-12-15T15:16:25.156Z,70.57
2022-12-15T15:18:57.364Z,56.85
2022-12-15T15:21:26.783Z,78.43
2022-12-15T15:24:10.885Z,62.05
2022-12-15T15:26:38.906Z,61.13
2022-12-15T15:29:21.553Z,73.13
2022-12-15T15:31:53.933Z,63.45
2022-12-15T15:34:21.330Z,67.40
2022-12-15T15:36:51.859Z,68.85
2022-12-15T15:39:23.714Z,71.78
2022-12-15T15:42:05.557Z,62.00
2022-12-15T15:44:33.570Z,74.13
2022-12-15T15:47:01.373Z,72.47
2022-12-15T15:52:06.025Z,67.97
2022-12-15T15:54:35.765Z,81.85
2022-12-15T15:57:05.489Z,68.50
2022-12-15T15:59:34.833Z,80.25
2022-12-15T16:02:05.730Z,80.93
2022-12-15T16:04:35.088Z,71.35
2022-12-15T16:07:05.280Z,90.07
2022-12-15T16:09:34.365Z,82.75
2022-12-15T16:12:09.965Z,84.10
2022-12-15T16:14:40.100Z,80.85
2022-12-15T16:17:10.736Z,72.90
2022-12-15T16:19:39.895Z,79.82
2022-12-15T16:22:09.609Z,79.70
2022-12-15T16:24:41.224Z,88.10
2022-12-15T16:27:12.583Z,82.22
2022-12-15T16:29:40.729Z,86.30
2022-12-15T16:32:13.433Z,82.03
2022-12-15T16:34:42.030Z,80.72
2022-12-15T16:37:18.949Z,82.50
2022-12-15T16:39:49.355Z,79.72
2022-12-15T16:42:18.273Z,93.07
2022-12-15T16:44:48.243Z,75.85
2022-12-15T16:47:16.132Z,89.10
2022-12-15T16:50:02.943Z,79.35
2022-12-15T16:52:30.498Z,83.82
2022-12-15T16:54:58.206Z,87.90
2022-12-15T16:59:54.403Z,80.22
2022-12-15T17:02:27.569Z,89.82
2022-12-15T17:04:55.845Z,94.35
2022-12-15T17:07:26.209Z,80.40
2022-12-15T17:09:54.086Z,83.57
2022-12-15T17:12:22.915Z,92.88
2022-12-15T17:14:54.500Z,76.25
2022-12-15T17:17:24.340Z,94.05
2022-12-15T17:20:27.419Z,84.30
2022-12-15T17:22:45.341Z,89.18
2022-12-15T17:25:37.464Z,94.22
2022-12-15T17:28:15.787Z,83.30
2022-12-15T17:30:45.670Z,94.10
2022-12-15T17:33:19.177Z,107.07
2022-12-15T17:35:47.184Z,105.75
2022-12-15T17:38:18.353Z,97.53
2022-12-15T17:40:51.916Z,112.40
2022-12-15T17:43:22.967Z,119.68
2022-12-15T17:45:55.639Z,116.43
2022-12-15T17:48:25.059Z,122.53
2022-12-15T17:50:54.309Z,117.82
2022-12-15T17:53:27.095Z,117.45
2022-12-15T17:55:57.091Z,109.97
2022-12-15T17:58:28.324Z,133.40
2022-12-15T18:00:59.598Z,117.25
2022-12-15T18:03:40.700Z,110.60
2022-12-15T18:06:13.394Z,131.73
2022-12-15T18:08:41.811Z,114.75
2022-12-15T18:11:17.211Z,113.90
2022-12-15T18:13:48.260Z,114.13
2022-12-15T18:16:16.026Z,104.45
2022-12-15T18:18:46.664Z,115.35
2022-12-15T18:21:15.357Z,111.95
2022-12-15T18:23:43.352Z,108.63
2022-12-15T18:26:12.601Z,96.10
2022-12-15T18:28:45.550Z,109.90
2022-12-15T18:31:20.839Z,108.10
2022-12-15T18:33:49.985Z,112.65
2022-12-15T18:36:17.938Z,125.63
2022-12-15T18:41:14.228Z,106.38
2022-12-15T18:43:42.726Z,114.72
2022-12-15T18:46:13.291Z,114.50
2022-12-15T18:48:41.403Z,105.28
2022-12-15T18:51:18.294Z,96.85
2022-12-15T18:53:46.120Z,115.45
2022-12-15T18:56:17.938Z,93.22
2022-12-15T18:58:45.685Z,94.78
2022-12-15T19:01:28.168Z,98.38
2022-12-15T19:03:55.765Z,100.90
2022-12-15T19:06:34.883Z,97.25
2022-12-15T19:09:02.819Z,101.82
2022-12-15T19:11:33.126Z,110.05
2022-12-15T19:14:01.617Z,131.98
2022-12-15T19:16:54.375Z,120.45
2022-12-15T19:19:39.552Z,121.03
2022-12-15T19:22:32.856Z,105.65
2022-12-15T19:25:02.061Z,118.30
2022-12-15T19:27:29.570Z,115.70
2022-12-15T19:29:58.694Z,125.57
2022-12-15T19:32:26.787Z,114.80
2022-12-15T19:34:54.331Z,105.43
2022-12-15T19:37:24.711Z,116.93
2022-12-15T19:39:53.247Z,111.20
2022-12-15T19:42:26.496Z,120.15
2022-12-15T19:44:56.753Z,113.13
2022-12-15T19:47:26.148Z,123.40
2022-12-15T19:49:56.502Z,117.65
2022-12-15T19:52:39.326Z,128.00
2022-12-15T19:55:08.417Z,119.45
2022-12-15T19:57:38.327Z,120.88
2022-12-15T20:00:07.591Z,124.68
2022-12-15T20:02:39.426Z,126.72
2022-12-15T20:07:35.574Z,119.03
2022-12-15T20:10:05.187Z,127.75
2022-12-15T20:12:32.642Z,119.10
2022-12-15T20:15:00.018Z,120.03
2022-12-15T20:17:27.387Z,127.35
2022-12-15T20:19:54.863Z,130.10
2022-12-15T20:22:22.228Z,129.82
2022-12-15T20:24:51.023Z,124.93
2022-12-15T20:27:19.371Z,128.02
2022-12-15T20:29:49.343Z,134.15
2022-12-15T20:32:18.276Z,124.97
2022-12-15T20:34:45.711Z,127.93
2022-12-15T20:37:17.498Z,136.50
2022-12-15T20:39:44.920Z,133.80
2022-12-15T20:42:14.355Z,124.80
2022-12-15T20:44:41.758Z,128.30
2022-12-15T20:47:14.950Z,126.63
2022-12-15T20:49:42.346Z,141.50
2022-12-15T20:52:13.622Z,142.35
2022-12-15T20:54:42.772Z,134.35
2022-12-15T20:57:10.282Z,134.68
2022-12-15T20:59:39.046Z,144.45
2022-12-15T21:02:16.162Z,146.02
2022-12-15T21:04:43.697Z,139.32
2022-12-15T21:07:11.821Z,143.95
2022-12-15T21:09:39.258Z,137.52
2022-12-15T21:12:15.392Z,127.78
2022-12-15T21:14:44.679Z,123.85
2022-12-15T21:17:14.772Z,117.47
2022-12-15T21:19:42.202Z,124.63
2022-12-15T21:22:15.995Z,125.53
2022-12-15T21:24:43.466Z,128.95
2022-12-15T21:27:12.654Z,131.82
2022-12-15T21:29:40.008Z,143.38
2022-12-15T21:32:08.948Z,160.73
2022-12-15T21:34:36.595Z,147.52
2022-12-15T21:41:59.743Z,118.72
2022-12-15T21:44:27.093Z,131.23
2022-12-15T21:46:54.664Z,124.45
2022-12-15T21:49:23.299Z,132.90
2022-12-15T21:51:52.218Z,135.13
2022-12-15T21:54:20.392Z,134.38
2022-12-15T21:56:48.491Z,136.40
2022-12-15T21:59:16.885Z,127.18
2022-12-15T22:01:44.442Z,122.18
2022-12-15T22:21:42.656Z,116.15
2022-12-15T22:24:10.404Z,113.13
2022-12-15T22:26:38.335Z,120.93
2022-12-15T22:29:11.449Z,126.88
2022-12-15T22:31:40.418Z,116.53
2022-12-15T22:34:13.148Z,131.90
2022-12-15T22:36:43.895Z,128.38
2022-12-15T22:39:18.996Z,131.52
2022-12-15T22:41:53.550Z,128.05
2022-12-15T22:44:25.575Z,138.77
2022-12-15T22:46:55.686Z,148.95
2022-12-15T22:49:24.884Z,127.78
2022-12-15T22:51:55.101Z,149.10
2022-12-15T22:54:23.889Z,124.50
2022-12-15T22:56:53.086Z,154.20
2022-12-15T22:59:29.546Z,153.13
2022-12-15T23:01:59.288Z,132.48
2022-12-15T23:04:26.747Z,121.20
2022-12-15T23:06:55.750Z,127.97
2022-12-15T23:09:23.344Z,131.18
2022-12-15T23:11:49.960Z,134.20
2022-12-15T23:14:19.072Z,139.45
2022-12-15T23:16:48.426Z,143.90
2022-12-15T23:19:23.830Z,132.50
2022-12-15T23:21:51.743Z,161.20
2022-12-15T23:24:20.931Z,143.00
2022-12-15T23:26:48.454Z,139.88
2022-12-15T23:29:17.463Z,146.38
2022-12-15T23:31:50.470Z,145.70
2022-12-15T23:34:23.333Z,134.10
2022-12-15T23:36:50.910Z,143.32
2022-12-15T23:39:20.697Z,135.10
2022-12-15T23:41:50.789Z,150.52
2022-12-15T23:44:26.723Z,144.57
2022-12-15T23:46:54.224Z,140.75
2022-12-15T23:51:56.547Z,143.07
2022-12-15T23:54:25.372Z,137.82
2022-12-15T23:56:52.782Z,130.35
2022-12-15T23:59:22.343Z,138.30
